Time;durP1;ratioP1;P1;durP2;ratioP2;P2;SDS_P1;SDS_P2;PMS_P1;PMS_P2;Temp;Humidity;BMP_temperature;BMP_pressure;BME280_temperature;BME280_humidity;BME280_pressure;Samples;Min_cycle;Max_cycle;Signal;HPM_P1;HPM_P2
2021/12/29 00:00:27;;;;;;;515.95;261.17;;;4.60;99.90;;;;;;5076024;28;20044;-62
2021/12/29 00:02:58;;;;;;;557.60;297.88;;;4.70;99.90;;;;;;5075761;28;20049;-62
2021/12/29 00:05:25;;;;;;;557.35;292.02;;;4.70;99.90;;;;;;5075846;28;20091;-62
2021/12/29 00:07:51;;;;;;;594.10;312.35;;;4.70;99.90;;;;;;5075782;28;20158;-62
2021/12/29 00:10:18;;;;;;;617.05;329.73;;;4.90;99.90;;;;;;5075605;28;20036;-63
2021/12/29 00:12:49;;;;;;;607.95;324.13;;;4.90;99.90;;;;;;5075867;28;20111;-63
2021/12/29 00:15:17;;;;;;;596.40;321.08;;;4.90;99.90;;;;;;5075672;28;20047;-62
2021/12/29 00:17:45;;;;;;;613.65;323.85;;;5.00;99.90;;;;;;5075187;28;20040;-62
2021/12/29 00:20:14;;;;;;;620.15;325.23;;;5.10;99.90;;;;;;5075526;28;20056;-62
2021/12/29 00:22:41;;;;;;;610.22;316.13;;;5.10;99.90;;;;;;5075322;28;20041;-63
2021/12/29 00:25:08;;;;;;;626.53;321.50;;;5.10;99.90;;;;;;5075235;28;20055;-62
2021/12/29 00:27:34;;;;;;;617.22;321.83;;;5.00;99.90;;;;;;5075416;28;20115;-62
2021/12/29 00:30:00;;;;;;;619.63;327.75;;;5.10;99.90;;;;;;5075311;28;20032;-63
2021/12/29 00:32:45;;;;;;;625.65;327.05;;;5.10;99.90;;;;;;5075459;28;20049;-62
2021/12/29 00:35:35;;;;;;;634.20;336.05;;;5.10;99.90;;;;;;5046258;28;20044;-63
2021/12/29 00:38:24;;;;;;;608.65;319.85;;;5.10;99.90;;;;;;5063894;28;20112;-62
2021/12/29 00:41:08;;;;;;;625.80;328.70;;;5.10;99.90;;;;;;5075318;28;20118;-63
2021/12/29 00:43:55;;;;;;;610.80;319.13;;;5.00;99.90;;;;;;5074754;28;20455;-63
2021/12/29 00:46:30;;;;;;;621.75;330.50;;;5.00;99.90;;;;;;5074397;28;20181;-63
2021/12/29 00:48:56;;;;;;;638.88;341.90;;;5.20;99.90;;;;;;5075086;28;20086;-63
2021/12/29 00:51:23;;;;;;;619.60;329.05;;;5.20;99.90;;;;;;5074647;28;20051;-62
2021/12/29 00:53:49;;;;;;;623.08;328.65;;;5.20;99.90;;;;;;5074663;28;20048;-63
2021/12/29 00:56:15;;;;;;;586.33;305.60;;;5.20;99.90;;;;;;5074709;28;20063;-63
2021/12/29 00:58:41;;;;;;;559.38;297.50;;;5.30;99.90;;;;;;5074851;28;20036;-63
2021/12/29 01:01:07;;;;;;;564.65;298.77;;;5.20;99.90;;;;;;5074620;28;20036;-63
2021/12/29 01:03:34;;;;;;;576.00;303.60;;;5.20;99.90;;;;;;5074769;28;20032;-63
2021/12/29 01:06:01;;;;;;;539.03;275.52;;;5.10;99.90;;;;;;5074462;28;20087;-62
2021/12/29 01:08:27;;;;;;;570.00;301.55;;;5.10;99.90;;;;;;5074489;28;20486;-62
2021/12/29 01:10:53;;;;;;;550.60;289.02;;;5.10;99.90;;;;;;5074654;28;20106;-62
2021/12/29 01:13:28;;;;;;;557.58;290.98;;;5.00;99.90;;;;;;5074350;28;20558;-62
2021/12/29 01:18:24;;;;;;;583.63;303.70;;;5.10;99.90;;;;;;5074462;28;20070;-63
2021/12/29 01:20:51;;;;;;;525.42;273.02;;;5.20;99.90;;;;;;5074358;28;20397;-63
2021/12/29 01:23:17;;;;;;;494.85;248.10;;;5.10;99.90;;;;;;5074337;28;20084;-63
2021/12/29 01:25:43;;;;;;;487.48;238.85;;;5.10;99.90;;;;;;5074467;28;20032;-63
2021/12/29 01:28:09;;;;;;;515.95;265.48;;;5.00;99.90;;;;;;5074286;28;20432;-63
2021/12/29 01:30:35;;;;;;;500.38;253.73;;;4.90;99.90;;;;;;5074858;28;20378;-63
2021/12/29 01:33:05;;;;;;;492.05;252.45;;;4.80;99.90;;;;;;5074457;28;20032;-63
2021/12/29 01:35:32;;;;;;;478.17;243.57;;;4.90;99.90;;;;;;5074216;28;20090;-62
2021/12/29 01:38:03;;;;;;;482.95;248.48;;;4.90;99.90;;;;;;5074160;28;20044;-62
2021/12/29 01:40:29;;;;;;;525.20;265.33;;;4.90;99.90;;;;;;5074189;28;20039;-63
2021/12/29 01:42:55;;;;;;;490.30;249.68;;;4.90;99.90;;;;;;5074045;28;20317;-63
2021/12/29 01:45:22;;;;;;;496.58;250.18;;;4.90;99.90;;;;;;5073974;28;20029;-63
2021/12/29 01:47:48;;;;;;;488.25;248.93;;;5.00;99.90;;;;;;5074391;28;20032;-63
2021/12/29 01:50:15;;;;;;;475.60;240.45;;;5.10;99.90;;;;;;5074010;28;20041;-63
2021/12/29 01:52:42;;;;;;;500.02;255.95;;;5.10;99.90;;;;;;5074037;28;20147;-63
2021/12/29 01:55:14;;;;;;;454.88;236.80;;;5.00;99.90;;;;;;5074216;28;20047;-63
2021/12/29 01:57:42;;;;;;;420.98;212.95;;;5.00;99.90;;;;;;5059444;28;20036;-63
2021/12/29 02:00:13;;;;;;;366.58;186.30;;;5.00;99.90;;;;;;5078339;28;20040;-63
2021/12/29 02:02:39;;;;;;;360.83;186.60;;;5.00;99.90;;;;;;5077965;28;20079;-63
2021/12/29 02:05:05;;;;;;;347.33;177.07;;;5.00;99.90;;;;;;5078097;28;20110;-63
2021/12/29 02:07:32;;;;;;;397.92;199.50;;;5.00;99.90;;;;;;5078147;28;20086;-63
2021/12/29 02:09:58;;;;;;;374.63;191.88;;;4.90;99.90;;;;;;5077972;28;20457;-63
2021/12/29 02:12:24;;;;;;;380.80;191.00;;;4.90;99.90;;;;;;5077681;28;20048;-63
2021/12/29 02:14:50;;;;;;;363.92;185.75;;;4.90;99.90;;;;;;5078066;28;20044;-63
2021/12/29 02:17:16;;;;;;;363.83;179.75;;;4.90;99.90;;;;;;5077542;28;20363;-63
2021/12/29 02:19:47;;;;;;;405.60;204.13;;;5.00;99.90;;;;;;5078284;28;20068;-63
2021/12/29 02:22:33;;;;;;;387.58;193.07;;;5.10;99.90;;;;;;5077991;28;20032;-63
2021/12/29 02:27:46;;;;;;;416.67;205.55;;;5.00;99.90;;;;;;5077578;28;20635;-64
2021/12/29 02:30:14;;;;;;;367.45;186.45;;;5.00;99.90;;;;;;5078178;28;20028;-63
2021/12/29 02:32:41;;;;;;;390.48;199.23;;;5.00;99.90;;;;;;5077509;28;20040;-64
2021/12/29 02:35:08;;;;;;;388.58;199.52;;;5.00;99.90;;;;;;5077490;28;20036;-63
2021/12/29 02:37:34;;;;;;;371.92;190.07;;;5.00;99.90;;;;;;5077348;28;20095;-64
2021/12/29 02:40:00;;;;;;;395.70;200.57;;;5.00;99.90;;;;;;5077318;28;20039;-64
2021/12/29 02:42:29;;;;;;;356.92;180.57;;;5.10;99.90;;;;;;5077459;28;20047;-64
2021/12/29 02:44:55;;;;;;;398.30;201.57;;;5.00;99.90;;;;;;5077378;28;20050;-64
2021/12/29 02:47:21;;;;;;;411.02;209.93;;;5.00;99.90;;;;;;5077103;28;20446;-64
2021/12/29 02:49:48;;;;;;;355.27;181.77;;;5.10;99.90;;;;;;5077407;28;20024;-64
2021/12/29 02:52:14;;;;;;;371.90;189.45;;;5.10;99.90;;;;;;5077061;28;20075;-64
2021/12/29 02:54:41;;;;;;;382.92;191.48;;;5.10;99.90;;;;;;5077000;28;20052;-64
2021/12/29 02:57:07;;;;;;;341.52;174.27;;;5.20;99.90;;;;;;5076963;28;20043;-64
2021/12/29 02:59:33;;;;;;;405.08;201.95;;;5.10;99.90;;;;;;5077039;28;20043;-64
2021/12/29 03:01:59;;;;;;;377.52;196.57;;;5.10;99.90;;;;;;5076988;28;20033;-64
2021/12/29 03:04:25;;;;;;;369.85;185.50;;;5.00;99.90;;;;;;5076973;28;20655;-63
2021/12/29 03:06:51;;;;;;;394.88;202.30;;;5.10;99.90;;;;;;5077092;28;20049;-64
2021/12/29 03:09:18;;;;;;;413.58;210.20;;;5.10;99.90;;;;;;5076254;28;20048;-64
2021/12/29 03:11:45;;;;;;;361.33;179.35;;;5.10;99.90;;;;;;5076547;28;20212;-64
2021/12/29 03:14:12;;;;;;;394.63;205.18;;;5.10;99.90;;;;;;5076844;28;20064;-64
2021/12/29 03:16:38;;;;;;;404.92;210.23;;;5.20;99.90;;;;;;5076423;28;20032;-64
2021/12/29 03:19:06;;;;;;;445.75;232.95;;;5.20;99.90;;;;;;5076769;28;20039;-64
2021/12/29 03:21:33;;;;;;;406.83;211.98;;;5.20;99.90;;;;;;5076563;28;20052;-64
2021/12/29 03:23:59;;;;;;;407.10;213.35;;;5.30;99.90;;;;;;5076397;28;20490;-64
2021/12/29 03:26:25;;;;;;;399.45;204.70;;;5.30;99.90;;;;;;5076773;28;20049;-64
2021/12/29 03:28:52;;;;;;;394.45;207.07;;;5.30;99.90;;;;;;5076548;28;20040;-64
2021/12/29 03:31:21;;;;;;;429.80;217.45;;;5.40;99.90;;;;;;5076623;28;20040;-64
2021/12/29 03:33:47;;;;;;;403.60;210.73;;;5.40;99.90;;;;;;5076480;28;20371;-64
2021/12/29 03:36:14;;;;;;;407.90;213.77;;;5.30;99.90;;;;;;5076392;28;20106;-64
2021/12/29 03:38:41;;;;;;;407.60;216.82;;;5.40;99.90;;;;;;5076290;28;20041;-64
2021/12/29 03:41:11;;;;;;;381.13;196.85;;;5.30;99.90;;;;;;5076284;28;20028;-64
2021/12/29 03:43:38;;;;;;;351.42;182.52;;;5.30;99.90;;;;;;5076074;28;20036;-64
2021/12/29 03:46:05;;;;;;;429.88;216.45;;;5.30;99.90;;;;;;5076224;28;20238;-64
2021/12/29 03:48:33;;;;;;;356.52;187.43;;;5.30;99.90;;;;;;5076153;28;20070;-64
2021/12/29 03:51:00;;;;;;;378.48;203.55;;;5.30;99.90;;;;;;5058194;28;20032;-64
2021/12/29 03:53:28;;;;;;;446.77;238.05;;;5.30;99.90;;;;;;5075935;28;20053;-64
2021/12/29 03:55:54;;;;;;;388.73;209.55;;;5.30;99.90;;;;;;5075958;28;20029;-64
2021/12/29 03:58:22;;;;;;;403.92;213.90;;;5.30;99.90;;;;;;5075839;28;20577;-64
2021/12/29 04:00:50;;;;;;;404.02;220.35;;;5.30;99.90;;;;;;5075937;28;20108;-64
2021/12/29 04:03:16;;;;;;;408.95;216.60;;;5.40;99.90;;;;;;5075890;28;20028;-64
2021/12/29 04:05:42;;;;;;;402.23;215.18;;;5.40;99.90;;;;;;5075709;28;20032;-64
2021/12/29 04:08:09;;;;;;;387.80;204.88;;;5.40;99.90;;;;;;5075844;28;20406;-64
2021/12/29 04:10:36;;;;;;;382.17;202.52;;;5.40;99.90;;;;;;5076011;28;20047;-64
2021/12/29 04:13:02;;;;;;;367.98;198.00;;;5.40;99.90;;;;;;5075580;28;20405;-64
2021/12/29 04:15:30;;;;;;;360.38;190.82;;;5.50;99.90;;;;;;5075657;28;20486;-64
2021/12/29 04:17:58;;;;;;;373.95;198.82;;;5.60;99.90;;;;;;5075420;28;20028;-64
2021/12/29 04:23:12;;;;;;;459.95;244.82;;;5.60;99.90;;;;;;5075469;28;20068;-64
2021/12/29 04:25:39;;;;;;;495.63;261.63;;;5.60;99.90;;;;;;5075357;28;20040;-64
2021/12/29 04:28:10;;;;;;;609.45;325.85;;;5.50;99.90;;;;;;5075287;28;20174;-64
2021/12/29 04:30:36;;;;;;;613.70;327.02;;;5.50;99.90;;;;;;5075293;28;20043;-64
2021/12/29 04:33:03;;;;;;;545.92;295.98;;;5.50;99.90;;;;;;5075238;28;20383;-64
2021/12/29 04:35:29;;;;;;;574.78;312.33;;;5.40;99.90;;;;;;5075262;28;20044;-64
2021/12/29 04:37:55;;;;;;;579.15;307.10;;;5.50;99.90;;;;;;5075099;28;20086;-64
2021/12/29 04:40:21;;;;;;;669.65;347.83;;;5.50;99.90;;;;;;5075142;28;20045;-64
2021/12/29 04:42:48;;;;;;;665.42;338.90;;;5.50;99.90;;;;;;5075035;28;20029;-64
2021/12/29 04:45:15;;;;;;;566.75;296.73;;;5.50;99.90;;;;;;5074840;28;20503;-64
2021/12/29 04:47:44;;;;;;;628.60;320.08;;;5.50;99.90;;;;;;5075329;28;20111;-64
2021/12/29 04:50:23;;;;;;;629.10;320.77;;;5.50;99.90;;;;;;5075075;28;20379;-64
2021/12/29 04:52:50;;;;;;;564.55;282.23;;;5.50;99.90;;;;;;5074723;28;20093;-64
2021/12/29 04:55:16;;;;;;;558.95;287.15;;;5.50;99.90;;;;;;5074776;28;20334;-64
2021/12/29 04:57:42;;;;;;;583.97;288.30;;;5.50;99.90;;;;;;5074674;28;20028;-65
2021/12/29 05:00:09;;;;;;;526.60;260.90;;;5.50;99.90;;;;;;5074809;28;20036;-65
2021/12/29 05:02:35;;;;;;;539.47;264.25;;;5.50;99.90;;;;;;5074840;28;20047;-65
2021/12/29 05:05:11;;;;;;;512.17;252.45;;;5.50;99.90;;;;;;5074776;28;20036;-65
2021/12/29 05:10:22;;;;;;;528.25;259.55;;;5.60;99.90;;;;;;5074540;28;20037;-65
2021/12/29 05:12:48;;;;;;;543.65;270.88;;;5.60;99.90;;;;;;5074580;28;20488;-64
2021/12/29 05:15:14;;;;;;;558.33;282.35;;;5.60;99.90;;;;;;5074577;28;20039;-64
2021/12/29 05:17:40;;;;;;;553.80;282.05;;;5.60;99.90;;;;;;5074074;28;20032;-64
2021/12/29 05:20:06;;;;;;;516.03;262.02;;;5.50;99.90;;;;;;5074673;28;20032;-65
2021/12/29 05:22:32;;;;;;;534.10;262.65;;;5.50;99.90;;;;;;5074424;28;20477;-65
2021/12/29 05:24:58;;;;;;;560.15;274.27;;;5.60;99.90;;;;;;5074355;28;20029;-65
2021/12/29 05:27:24;;;;;;;554.00;272.63;;;5.60;99.90;;;;;;5074196;28;20040;-65
2021/12/29 05:29:50;;;;;;;528.72;246.30;;;5.70;99.90;;;;;;5074259;28;20024;-65
2021/12/29 05:32:16;;;;;;;525.17;241.65;;;5.70;99.90;;;;;;5073937;28;20411;-64
2021/12/29 05:34:42;;;;;;;543.95;241.40;;;5.70;99.90;;;;;;5074386;28;20036;-65
2021/12/29 05:37:08;;;;;;;495.77;223.68;;;5.70;99.90;;;;;;5074074;28;20043;-65
2021/12/29 05:39:34;;;;;;;482.95;219.82;;;5.80;99.90;;;;;;5074266;28;20066;-65
2021/12/29 05:41:59;;;;;;;544.03;236.98;;;5.80;99.90;;;;;;5074196;28;20029;-65
2021/12/29 05:44:25;;;;;;;471.33;211.75;;;5.90;99.90;;;;;;5073890;28;20521;-65
2021/12/29 05:46:51;;;;;;;458.65;209.77;;;5.90;99.90;;;;;;5074077;28;20039;-64
2021/12/29 05:49:17;;;;;;;506.27;216.88;;;5.90;99.90;;;;;;5074493;28;20040;-65
2021/12/29 05:51:43;;;;;;;460.65;194.90;;;5.90;99.90;;;;;;5074196;28;20147;-64
2021/12/29 05:54:10;;;;;;;440.95;189.32;;;5.90;99.90;;;;;;5073896;28;20079;-65
2021/12/29 05:56:37;;;;;;;433.40;183.57;;;6.00;99.90;;;;;;5073900;28;20052;-64
2021/12/29 05:59:04;;;;;;;438.50;186.95;;;6.00;99.90;;;;;;5073958;28;20039;-65
2021/12/29 06:01:31;;;;;;;466.08;195.73;;;6.00;99.90;;;;;;5073861;28;20033;-64
2021/12/29 06:03:57;;;;;;;412.95;174.55;;;6.00;99.90;;;;;;5073929;28;20036;-65
2021/12/29 06:06:23;;;;;;;461.10;189.93;;;6.00;99.90;;;;;;5073887;28;20036;-65
2021/12/29 06:08:49;;;;;;;407.77;179.55;;;5.90;99.90;;;;;;5074064;28;20386;-65
2021/12/29 06:11:15;;;;;;;420.20;184.32;;;6.00;99.90;;;;;;5073624;28;20040;-64
2021/12/29 06:13:41;;;;;;;429.70;180.18;;;6.00;99.90;;;;;;5073646;28;20043;-65
2021/12/29 06:16:07;;;;;;;482.65;218.35;;;6.00;99.90;;;;;;5073712;28;20432;-65
2021/12/29 06:18:33;;;;;;;443.58;196.15;;;6.00;99.90;;;;;;5074018;28;20364;-64
2021/12/29 06:20:59;;;;;;;470.42;195.02;;;6.10;99.90;;;;;;5073639;28;20386;-64
2021/12/29 06:23:25;;;;;;;432.85;190.65;;;6.00;99.90;;;;;;5073725;28;20037;-64
2021/12/29 06:25:50;;;;;;;453.15;200.52;;;6.00;99.90;;;;;;5073402;28;20041;-65
2021/12/29 06:28:16;;;;;;;422.35;188.77;;;6.00;99.90;;;;;;5066649;28;20040;-64
2021/12/29 06:30:43;;;;;;;427.17;188.35;;;6.00;99.90;;;;;;5061129;28;20044;-64
2021/12/29 06:33:09;;;;;;;497.13;215.77;;;6.00;99.90;;;;;;5066929;28;20032;-64
2021/12/29 06:35:35;;;;;;;474.90;216.57;;;6.00;99.90;;;;;;5066366;28;20036;-64
2021/12/29 06:38:01;;;;;;;464.17;207.77;;;6.10;99.90;;;;;;5064694;28;20064;-65
2021/12/29 06:40:27;;;;;;;426.17;185.52;;;6.10;99.90;;;;;;5071378;28;20036;-64
2021/12/29 06:42:55;;;;;;;446.13;198.50;;;6.10;99.90;;;;;;5074875;28;20112;-64
2021/12/29 06:49:31;;;;;;;447.92;207.60;;;6.10;99.90;;;;;;5021897;28;20129;-62
2021/12/29 06:51:57;;;;;;;478.67;218.90;;;6.20;99.90;;;;;;5083341;28;20044;-63
2021/12/29 06:54:26;;;;;;;564.22;260.98;;;6.30;99.90;;;;;;5067749;28;20075;-63
2021/12/29 06:56:55;;;;;;;598.00;277.67;;;6.30;99.90;;;;;;5036528;28;20159;-64
2021/12/29 06:59:22;;;;;;;583.03;265.65;;;6.20;99.90;;;;;;5037577;28;20036;-64
2021/12/29 07:04:50;;;;;;;621.90;301.77;;;6.30;99.90;;;;;;5070526;28;20076;-65
2021/12/29 07:37:58;;;;;;;555.53;289.58;;;6.50;99.90;;;;;;5088579;27;20080;-51
2021/12/29 07:40:25;;;;;;;516.50;250.27;;;6.50;99.90;;;;;;5083795;28;20102;-51
2021/12/29 07:42:51;;;;;;;608.10;302.85;;;6.60;99.90;;;;;;4982730;28;1451866;-51
2021/12/29 07:45:18;;;;;;;675.03;354.17;;;6.60;99.90;;;;;;5055911;28;20056;-51
2021/12/29 07:47:47;;;;;;;609.60;323.52;;;6.60;99.90;;;;;;5074051;28;20044;-51
2021/12/29 07:50:18;;;;;;;579.80;307.88;;;6.70;99.90;;;;;;5074714;28;20036;-51
2021/12/29 07:52:48;;;;;;;598.35;318.73;;;6.70;99.90;;;;;;5034726;28;20039;-51
2021/12/29 07:55:16;;;;;;;620.78;340.02;;;6.80;99.90;;;;;;5036662;28;20052;-51
2021/12/29 07:57:42;;;;;;;677.65;361.77;;;6.80;99.90;;;;;;5070874;28;20660;-64
2021/12/29 08:00:09;;;;;;;686.13;365.95;;;6.90;99.90;;;;;;5092188;28;20116;-64
2021/12/29 08:02:39;;;;;;;616.90;328.77;;;6.90;99.90;;;;;;5082106;28;20036;-63
2021/12/29 08:05:07;;;;;;;563.65;302.88;;;7.00;99.90;;;;;;5079727;28;20063;-65
2021/12/29 08:07:36;;;;;;;573.85;303.95;;;7.10;99.90;;;;;;5082500;28;20056;-66
2021/12/29 08:10:04;;;;;;;592.10;314.48;;;7.20;99.90;;;;;;5046197;28;20598;-65
2021/12/29 08:19:59;;;;;;;483.98;251.98;;;7.50;99.90;;;;;;5042482;28;20505;-65
2021/12/29 08:22:25;;;;;;;486.50;252.80;;;7.60;99.90;;;;;;5087320;28;20040;-63
2021/12/29 08:24:51;;;;;;;548.15;279.92;;;7.70;99.90;;;;;;5080437;28;20040;-62
2021/12/29 08:27:17;;;;;;;528.05;271.30;;;7.70;99.90;;;;;;5072734;28;20048;-65
2021/12/29 08:29:43;;;;;;;520.47;272.63;;;7.80;99.90;;;;;;5080465;28;20037;-65
2021/12/29 08:39:23;;;;;;;625.20;348.65;;;7.80;99.90;;;;;;5077948;28;20138;-64
2021/12/29 08:41:49;;;;;;;604.40;342.25;;;7.70;99.90;;;;;;5083999;28;20039;-64
2021/12/29 08:44:16;;;;;;;649.47;367.17;;;7.80;99.90;;;;;;5081044;28;20032;-64
2021/12/29 08:46:45;;;;;;;683.28;392.83;;;8.00;99.90;;;;;;5077523;28;20052;-65
2021/12/29 08:49:11;;;;;;;697.15;391.95;;;8.10;99.90;;;;;;5068306;28;20067;-66
2021/12/29 08:51:37;;;;;;;691.40;391.67;;;8.50;99.90;;;;;;5065848;28;20029;-65
2021/12/29 08:54:03;;;;;;;674.42;391.08;;;8.80;99.90;;;;;;5064545;28;20033;-65
2021/12/29 08:56:29;;;;;;;654.90;374.23;;;9.10;99.90;;;;;;5058780;28;20049;-65
2021/12/29 08:58:56;;;;;;;533.55;292.88;;;9.40;99.90;;;;;;5055127;28;20047;-66
2021/12/29 09:01:23;;;;;;;417.42;221.57;;;9.90;99.90;;;;;;5052894;28;20039;-66
2021/12/29 09:03:50;;;;;;;391.83;204.32;;;10.50;99.90;;;;;;5070520;28;20108;-66
2021/12/29 09:06:16;;;;;;;338.92;174.02;;;10.70;99.90;;;;;;5050698;28;20872;-66
2021/12/29 09:08:43;;;;;;;330.73;169.70;;;10.90;99.90;;;;;;5054758;28;20514;-67
2021/12/29 09:11:11;;;;;;;257.15;137.45;;;11.60;99.90;;;;;;5053318;28;20182;-67
2021/12/29 09:13:37;;;;;;;204.25;109.72;;;12.20;99.90;;;;;;5058616;28;20048;-67
2021/12/29 09:16:04;;;;;;;249.85;129.40;;;13.20;99.90;;;;;;5049565;28;20278;-67
2021/12/29 09:18:32;;;;;;;198.93;109.20;;;13.60;99.90;;;;;;5052064;28;20122;-67
2021/12/29 09:21:07;;;;;;;212.27;113.90;;;14.40;99.90;;;;;;5052561;28;20033;-67
2021/12/29 09:23:35;;;;;;;253.32;139.05;;;14.40;99.90;;;;;;5028180;28;20038;-67
2021/12/29 09:26:01;;;;;;;240.23;136.73;;;14.40;99.90;;;;;;5040537;28;20107;-67
2021/12/29 09:28:27;;;;;;;240.32;130.73;;;14.70;99.90;;;;;;5038952;28;20033;-67
2021/12/29 09:30:53;;;;;;;239.40;131.60;;;14.90;99.90;;;;;;5048543;28;20532;-67
2021/12/29 09:33:20;;;;;;;208.48;116.80;;;15.30;99.90;;;;;;5052976;28;20045;-67
2021/12/29 09:35:49;;;;;;;224.25;123.13;;;16.10;99.90;;;;;;5036492;28;20045;-67
2021/12/29 09:38:17;;;;;;;187.18;103.60;;;16.60;99.90;;;;;;5032883;28;20096;-66
2021/12/29 09:40:44;;;;;;;225.20;128.05;;;17.10;99.90;;;;;;5034365;28;20555;-65
2021/12/29 09:43:10;;;;;;;205.20;122.20;;;16.30;99.90;;;;;;5045625;28;20033;-65
2021/12/29 09:45:38;;;;;;;167.15;100.30;;;15.50;99.90;;;;;;5047008;28;20493;-64
2021/12/29 09:48:05;;;;;;;205.15;115.30;;;15.30;99.90;;;;;;5067431;28;20171;-64
2021/12/29 09:50:32;;;;;;;197.25;115.68;;;14.50;99.90;;;;;;5056914;28;20024;-65
2021/12/29 09:52:58;;;;;;;207.13;116.20;;;14.00;99.90;;;;;;5071172;28;20055;-63
2021/12/29 09:55:25;;;;;;;183.05;110.25;;;13.70;99.90;;;;;;5073744;28;20051;-63
2021/12/29 09:57:54;;;;;;;196.52;113.25;;;13.40;99.90;;;;;;5073796;28;20025;-63
2021/12/29 10:00:34;;;;;;;169.43;97.15;;;12.80;99.90;;;;;;5074685;28;20051;-63
2021/12/29 10:03:04;;;;;;;142.50;81.35;;;12.60;99.90;;;;;;5078257;28;20044;-63
2021/12/29 10:05:31;;;;;;;160.80;92.97;;;12.20;99.90;;;;;;5080793;28;20032;-62
2021/12/29 10:08:08;;;;;;;183.40;103.70;;;11.90;99.90;;;;;;5071762;28;20076;-62
2021/12/29 10:10:36;;;;;;;177.98;104.07;;;11.30;99.90;;;;;;5075412;28;20512;-63
2021/12/29 10:13:03;;;;;;;199.73;114.78;;;11.30;99.90;;;;;;5071987;28;20036;-63
2021/12/29 10:15:37;;;;;;;196.40;113.53;;;11.30;99.90;;;;;;5070569;28;20044;-62
2021/12/29 10:18:09;;;;;;;191.57;107.13;;;11.30;99.90;;;;;;5072842;28;20072;-62
2021/12/29 10:20:49;;;;;;;179.32;100.97;;;11.30;99.90;;;;;;5082870;28;20079;-63
2021/12/29 10:23:23;;;;;;;177.27;104.07;;;11.10;99.90;;;;;;5077951;28;20055;-63
2021/12/29 10:25:50;;;;;;;173.80;98.75;;;11.00;99.90;;;;;;5081656;28;20048;-62
2021/12/29 10:28:44;;;;;;;165.80;95.43;;;11.10;99.90;;;;;;5074343;28;20219;-63
2021/12/29 10:31:13;;;;;;;161.63;90.82;;;11.70;99.90;;;;;;5081470;28;20053;-65
2021/12/29 10:33:50;;;;;;;153.02;87.15;;;12.50;99.90;;;;;;5078843;28;20063;-65
2021/12/29 10:36:27;;;;;;;169.00;92.97;;;14.10;99.90;;;;;;5072607;28;20047;-65
2021/12/29 10:39:03;;;;;;;147.70;88.22;;;14.70;99.90;;;;;;5070416;28;20040;-64
2021/12/29 10:41:30;;;;;;;156.57;92.13;;;14.80;99.90;;;;;;5076912;28;20146;-64
2021/12/29 10:44:00;;;;;;;171.48;98.85;;;14.60;99.90;;;;;;5094593;28;20032;-63
2021/12/29 10:46:27;;;;;;;174.43;104.97;;;14.30;99.90;;;;;;5076041;28;20100;-63
2021/12/29 10:48:54;;;;;;;175.15;103.35;;;13.60;99.90;;;;;;5076142;28;20032;-62
2021/12/29 10:51:30;;;;;;;149.00;88.80;;;13.30;99.90;;;;;;5076765;28;20036;-62
2021/12/29 10:54:05;;;;;;;150.43;86.75;;;12.80;99.90;;;;;;5077335;28;20036;-62
2021/12/29 10:56:32;;;;;;;130.68;75.35;;;12.80;99.90;;;;;;5089505;28;20044;-62
2021/12/29 10:58:58;;;;;;;83.43;47.95;;;12.60;99.90;;;;;;5084654;28;20394;-63
2021/12/29 11:01:24;;;;;;;89.28;50.20;;;12.50;99.90;;;;;;5075909;28;20060;-64
2021/12/29 11:03:58;;;;;;;95.95;55.63;;;12.50;99.90;;;;;;5071570;28;20041;-64
2021/12/29 11:06:26;;;;;;;121.63;70.63;;;12.60;99.90;;;;;;5070406;28;20102;-64
2021/12/29 11:08:55;;;;;;;108.03;58.70;;;12.90;99.90;;;;;;5076003;28;20044;-63
2021/12/29 11:11:42;;;;;;;95.78;49.83;;;13.10;99.90;;;;;;5075411;28;20146;-64
2021/12/29 11:14:42;;;;;;;84.00;45.45;;;13.20;99.90;;;;;;5055143;28;20094;-63
2021/12/29 11:17:20;;;;;;;76.78;45.25;;;13.00;99.90;;;;;;5058685;28;20436;-63
2021/12/29 11:19:59;;;;;;;80.45;46.10;;;13.00;99.90;;;;;;5072956;28;20477;-63
2021/12/29 11:22:29;;;;;;;73.13;44.10;;;12.60;99.90;;;;;;5081836;28;20124;-63
2021/12/29 11:25:02;;;;;;;89.20;50.53;;;12.30;99.90;;;;;;5078708;28;20091;-63
2021/12/29 11:27:35;;;;;;;91.28;51.28;;;12.30;99.90;;;;;;5056767;28;20048;-63
2021/12/29 11:30:10;;;;;;;94.57;52.03;;;12.40;99.90;;;;;;5073459;28;20043;-63
2021/12/29 11:32:40;;;;;;;89.03;52.20;;;12.20;99.90;;;;;;5075146;28;20058;-63
2021/12/29 11:35:16;;;;;;;84.43;48.35;;;12.40;99.90;;;;;;5068241;28;20045;-63
2021/12/29 11:37:45;;;;;;;89.05;50.10;;;12.50;99.90;;;;;;5075058;28;20028;-63
2021/12/29 11:40:15;;;;;;;88.85;53.15;;;12.60;99.90;;;;;;5075300;28;20045;-64
2021/12/29 11:42:41;;;;;;;91.65;52.28;;;13.50;99.90;;;;;;5075848;28;20028;-64
2021/12/29 11:45:10;;;;;;;82.07;50.08;;;14.10;99.90;;;;;;5050761;28;20048;-65
2021/12/29 11:47:36;;;;;;;89.07;49.85;;;14.70;99.90;;;;;;5072009;28;20057;-65
2021/12/29 11:50:05;;;;;;;87.10;49.28;;;15.50;99.90;;;;;;5067635;28;20097;-64
2021/12/29 11:52:49;;;;;;;92.75;50.15;;;15.70;99.90;;;;;;5064790;28;20047;-64
2021/12/29 11:55:19;;;;;;;97.50;52.28;;;15.90;99.90;;;;;;5064519;28;20036;-64
2021/12/29 11:57:46;;;;;;;94.87;50.70;;;15.50;99.90;;;;;;5069014;28;20048;-63
2021/12/29 12:00:19;;;;;;;87.93;46.90;;;15.20;99.90;;;;;;5075919;28;20466;-63
2021/12/29 12:02:50;;;;;;;89.03;49.60;;;14.70;99.90;;;;;;5078757;28;20071;-63
2021/12/29 12:05:22;;;;;;;92.47;46.55;;;14.50;99.90;;;;;;5071694;28;20487;-63
2021/12/29 12:07:48;;;;;;;93.38;47.20;;;14.40;99.90;;;;;;5073027;28;20037;-63
2021/12/29 12:10:35;;;;;;;107.50;48.15;;;14.20;99.90;;;;;;5075867;28;20045;-63
2021/12/29 12:13:05;;;;;;;95.22;43.95;;;14.20;99.90;;;;;;5071884;28;20167;-63
2021/12/29 12:15:38;;;;;;;99.85;46.22;;;14.30;99.90;;;;;;5069225;28;20106;-63
2021/12/29 12:18:08;;;;;;;89.15;42.53;;;14.40;99.90;;;;;;5071811;28;20109;-63
2021/12/29 12:20:49;;;;;;;113.75;48.45;;;14.30;99.90;;;;;;5075038;28;20043;-62
2021/12/29 12:23:34;;;;;;;129.32;50.55;;;14.30;99.90;;;;;;5072082;28;20569;-62
2021/12/29 12:26:09;;;;;;;111.50;49.70;;;14.20;99.90;;;;;;5075087;28;20092;-62
2021/12/29 12:28:47;;;;;;;130.10;51.13;;;14.00;99.90;;;;;;5069060;28;20044;-62
2021/12/29 12:31:23;;;;;;;112.38;51.17;;;14.00;99.90;;;;;;5074607;28;20064;-62
2021/12/29 12:33:51;;;;;;;120.55;51.20;;;13.70;99.90;;;;;;5071169;28;20033;-62
2021/12/29 12:36:18;;;;;;;133.88;53.70;;;13.70;99.90;;;;;;5075423;28;20036;-63
2021/12/29 12:38:44;;;;;;;107.80;50.67;;;13.60;99.90;;;;;;5082622;28;20033;-63
2021/12/29 12:41:18;;;;;;;111.60;46.85;;;13.60;99.90;;;;;;5074202;28;20477;-63
2021/12/29 12:43:58;;;;;;;99.57;46.13;;;13.60;99.90;;;;;;5088544;28;20028;-63
2021/12/29 12:46:47;;;;;;;125.05;50.80;;;13.40;99.90;;;;;;5079848;28;20036;-63
2021/12/29 12:49:18;;;;;;;130.85;56.58;;;13.00;99.90;;;;;;5071744;28;20037;-63
2021/12/29 12:51:59;;;;;;;144.80;60.67;;;13.00;99.90;;;;;;5073526;28;20127;-63
2021/12/29 12:54:28;;;;;;;164.77;63.63;;;13.10;99.90;;;;;;5072568;28;20044;-62
2021/12/29 12:56:58;;;;;;;184.48;73.45;;;13.10;99.90;;;;;;5072883;28;20029;-63
2021/12/29 12:59:42;;;;;;;185.30;78.25;;;13.30;99.90;;;;;;5079256;28;20067;-63
2021/12/29 13:02:18;;;;;;;195.63;81.50;;;13.30;99.90;;;;;;5074603;28;20516;-62
2021/12/29 13:05:01;;;;;;;213.88;82.50;;;13.30;99.90;;;;;;5074225;28;20036;-62
2021/12/29 13:07:28;;;;;;;220.55;84.88;;;13.10;99.90;;;;;;5074011;28;20533;-62
2021/12/29 13:09:57;;;;;;;200.80;83.78;;;13.00;99.90;;;;;;5072929;28;20485;-62
2021/12/29 13:12:29;;;;;;;210.13;89.63;;;12.90;99.90;;;;;;5056609;28;20036;-62
2021/12/29 13:15:12;;;;;;;211.68;90.47;;;12.80;99.90;;;;;;5065722;28;20123;-62
2021/12/29 13:17:42;;;;;;;216.57;89.90;;;12.70;99.90;;;;;;5050030;28;20043;-62
2021/12/29 13:20:09;;;;;;;183.60;79.97;;;12.60;99.90;;;;;;5065075;28;20037;-62
2021/12/29 13:22:36;;;;;;;155.88;70.43;;;12.70;99.90;;;;;;5069467;28;20486;-62
2021/12/29 13:25:19;;;;;;;163.65;70.97;;;12.70;99.90;;;;;;5082464;28;20048;-62
2021/12/29 13:28:13;;;;;;;142.60;68.25;;;12.60;99.90;;;;;;5060093;28;20057;-62
2021/12/29 13:30:45;;;;;;;162.52;73.47;;;12.80;99.90;;;;;;5075483;28;20115;-62